sensor_id;sensor_type;location;lat;lon;timestamp;noise_LAeq;noise_LA_min;noise_LA_max;noise_LA01;noise_LA95
77135;Laerm;48586;50.122;18.972;2023-05-16T00:01:47;37.65;34.77;42.37;;
77135;Laerm;48586;50.122;18.972;2023-05-16T00:03:51;41.98;35.45;61.44;;
77135;Laerm;48586;50.122;18.972;2023-05-16T00:05:55;39.81;34.46;48.53;;
77135;Laerm;48586;50.122;18.972;2023-05-16T00:08:04;39.06;34.33;47.09;;
77135;Laerm;48586;50.122;18.972;2023-05-16T00:10:09;38.54;33.89;50.38;;
77135;Laerm;48586;50.122;18.972;2023-05-16T00:12:17;46.15;35.35;54.25;;
77135;Laerm;48586;50.122;18.972;2023-05-16T00:14:24;40.31;34.86;49.38;;
77135;Laerm;48586;50.122;18.972;2023-05-16T00:16:28;37.27;34.19;47.46;;
77135;Laerm;48586;50.122;18.972;2023-05-16T00:18:33;35.48;34.07;42.56;;
77135;Laerm;48586;50.122;18.972;2023-05-16T00:20:38;36.02;33.86;45.96;;
77135;Laerm;48586;50.122;18.972;2023-05-16T00:22:43;36.13;33.96;43.00;;
77135;Laerm;48586;50.122;18.972;2023-05-16T00:24:47;37.73;34.28;49.22;;
77135;Laerm;48586;50.122;18.972;2023-05-16T00:26:51;35.71;33.99;38.38;;
77135;Laerm;48586;50.122;18.972;2023-05-16T00:28:58;38.91;34.20;51.94;;
77135;Laerm;48586;50.122;18.972;2023-05-16T00:31:03;37.50;34.02;49.18;;
77135;Laerm;48586;50.122;18.972;2023-05-16T00:33:08;35.84;34.04;41.06;;
77135;Laerm;48586;50.122;18.972;2023-05-16T00:35:11;35.74;34.26;38.79;;
77135;Laerm;48586;50.122;18.972;2023-05-16T00:37:16;35.44;34.13;38.96;;
77135;Laerm;48586;50.122;18.972;2023-05-16T00:39:21;35.23;33.96;37.71;;
77135;Laerm;48586;50.122;18.972;2023-05-16T00:41:25;41.49;34.06;54.91;;
77135;Laerm;48586;50.122;18.972;2023-05-16T00:43:30;42.88;34.30;55.65;;
77135;Laerm;48586;50.122;18.972;2023-05-16T00:45:37;40.86;34.63;52.34;;
77135;Laerm;48586;50.122;18.972;2023-05-16T00:47:41;41.71;34.59;53.59;;
77135;Laerm;48586;50.122;18.972;2023-05-16T00:49:46;41.56;34.00;52.17;;
77135;Laerm;48586;50.122;18.972;2023-05-16T00:51:53;35.41;33.99;37.37;;
77135;Laerm;48586;50.122;18.972;2023-05-16T00:53:57;35.50;33.93;39.47;;
77135;Laerm;48586;50.122;18.972;2023-05-16T00:56:02;36.08;34.07;42.52;;
77135;Laerm;48586;50.122;18.972;2023-05-16T00:58:10;35.78;34.21;39.95;;
77135;Laerm;48586;50.122;18.972;2023-05-16T01:00:17;37.96;34.64;47.22;;
77135;Laerm;48586;50.122;18.972;2023-05-16T01:02:26;36.75;34.34;42.31;;
77135;Laerm;48586;50.122;18.972;2023-05-16T01:04:32;39.72;34.31;47.41;;
77135;Laerm;48586;50.122;18.972;2023-05-16T01:06:37;37.43;34.47;49.68;;
77135;Laerm;48586;50.122;18.972;2023-05-16T01:08:41;35.71;34.27;39.86;;
77135;Laerm;48586;50.122;18.972;2023-05-16T01:10:59;35.48;34.13;37.65;;
77135;Laerm;48586;50.122;18.972;2023-05-16T01:13:14;36.14;34.02;39.08;;
77135;Laerm;48586;50.122;18.972;2023-05-16T01:15:26;40.58;34.27;51.20;;
77135;Laerm;48586;50.122;18.972;2023-05-16T01:17:49;38.00;35.19;44.83;;
77135;Laerm;48586;50.122;18.972;2023-05-16T01:20:08;36.14;34.40;41.83;;
77135;Laerm;48586;50.122;18.972;2023-05-16T01:22:37;35.70;34.06;39.82;;
77135;Laerm;48586;50.122;18.972;2023-05-16T01:25:05;36.36;34.41;42.66;;
77135;Laerm;48586;50.122;18.972;2023-05-16T01:27:19;37.56;34.46;49.65;;
77135;Laerm;48586;50.122;18.972;2023-05-16T01:29:24;39.44;34.70;49.87;;
77135;Laerm;48586;50.122;18.972;2023-05-16T01:31:29;41.88;34.49;51.48;;
77135;Laerm;48586;50.122;18.972;2023-05-16T01:33:33;36.59;34.58;40.84;;
77135;Laerm;48586;50.122;18.972;2023-05-16T01:35:49;36.64;34.45;42.41;;
77135;Laerm;48586;50.122;18.972;2023-05-16T01:38:09;36.98;34.40;44.07;;
77135;Laerm;48586;50.122;18.972;2023-05-16T01:40:31;39.35;34.78;49.87;;
77135;Laerm;48586;50.122;18.972;2023-05-16T01:42:46;42.09;34.22;54.94;;
77135;Laerm;48586;50.122;18.972;2023-05-16T01:45:03;38.54;34.42;49.18;;
77135;Laerm;48586;50.122;18.972;2023-05-16T01:47:15;41.53;34.56;54.33;;
77135;Laerm;48586;50.122;18.972;2023-05-16T01:49:28;44.53;35.00;53.09;;
77135;Laerm;48586;50.122;18.972;2023-05-16T01:51:40;39.21;35.44;50.71;;
77135;Laerm;48586;50.122;18.972;2023-05-16T01:53:45;48.28;35.21;69.49;;
77135;Laerm;48586;50.122;18.972;2023-05-16T01:55:51;48.90;36.16;66.42;;
77135;Laerm;48586;50.122;18.972;2023-05-16T01:58:04;37.56;34.95;48.85;;
77135;Laerm;48586;50.122;18.972;2023-05-16T02:00:12;38.48;34.72;49.86;;
77135;Laerm;48586;50.122;18.972;2023-05-16T02:02:17;36.96;34.75;48.13;;
77135;Laerm;48586;50.122;18.972;2023-05-16T02:04:22;42.40;34.90;55.30;;
77135;Laerm;48586;50.122;18.972;2023-05-16T02:06:26;38.25;35.17;46.87;;
77135;Laerm;48586;50.122;18.972;2023-05-16T02:08:31;37.79;34.61;47.70;;
77135;Laerm;48586;50.122;18.972;2023-05-16T02:10:36;38.25;34.91;48.14;;
77135;Laerm;48586;50.122;18.972;2023-05-16T02:12:41;42.28;34.57;53.10;;
77135;Laerm;48586;50.122;18.972;2023-05-16T02:14:48;56.80;34.58;80.77;;
77135;Laerm;48586;50.122;18.972;2023-05-16T02:16:53;45.47;37.07;66.57;;
77135;Laerm;48586;50.122;18.972;2023-05-16T02:18:57;38.87;35.48;50.44;;
77135;Laerm;48586;50.122;18.972;2023-05-16T02:21:01;38.38;35.04;47.32;;
77135;Laerm;48586;50.122;18.972;2023-05-16T02:23:06;38.79;34.76;49.52;;
77135;Laerm;48586;50.122;18.972;2023-05-16T02:25:10;37.99;35.14;51.14;;
77135;Laerm;48586;50.122;18.972;2023-05-16T02:27:15;37.97;34.95;47.05;;
77135;Laerm;48586;50.122;18.972;2023-05-16T02:29:20;39.00;35.03;53.18;;
77135;Laerm;48586;50.122;18.972;2023-05-16T02:31:29;38.25;35.13;44.75;;
77135;Laerm;48586;50.122;18.972;2023-05-16T02:33:35;38.50;35.69;47.03;;
77135;Laerm;48586;50.122;18.972;2023-05-16T02:35:40;45.11;35.66;59.62;;
77135;Laerm;48586;50.122;18.972;2023-05-16T02:37:44;42.98;35.58;53.04;;
77135;Laerm;48586;50.122;18.972;2023-05-16T02:39:48;40.02;36.30;48.67;;
77135;Laerm;48586;50.122;18.972;2023-05-16T02:41:53;44.40;36.07;68.81;;
77135;Laerm;48586;50.122;18.972;2023-05-16T02:43:57;43.35;36.75;58.69;;
77135;Laerm;48586;50.122;18.972;2023-05-16T02:46:04;38.77;35.44;53.46;;
77135;Laerm;48586;50.122;18.972;2023-05-16T02:48:11;43.12;37.23;54.69;;
77135;Laerm;48586;50.122;18.972;2023-05-16T02:50:15;39.53;35.73;47.87;;
77135;Laerm;48586;50.122;18.972;2023-05-16T02:52:20;44.42;36.16;55.27;;
77135;Laerm;48586;50.122;18.972;2023-05-16T02:54:24;46.68;37.60;56.83;;
77135;Laerm;48586;50.122;18.972;2023-05-16T02:56:29;45.25;37.54;53.19;;
77135;Laerm;48586;50.122;18.972;2023-05-16T02:58:33;41.95;37.09;54.31;;
77135;Laerm;48586;50.122;18.972;2023-05-16T03:00:37;48.17;38.55;62.53;;
77135;Laerm;48586;50.122;18.972;2023-05-16T03:02:43;47.90;38.66;56.00;;
77135;Laerm;48586;50.122;18.972;2023-05-16T03:04:50;45.05;38.36;53.61;;
77135;Laerm;48586;50.122;18.972;2023-05-16T03:06:55;47.93;37.84;60.90;;
77135;Laerm;48586;50.122;18.972;2023-05-16T03:09:02;50.15;37.23;80.01;;
77135;Laerm;48586;50.122;18.972;2023-05-16T03:11:07;47.47;37.76;55.43;;
77135;Laerm;48586;50.122;18.972;2023-05-16T03:13:12;46.72;38.32;56.12;;
77135;Laerm;48586;50.122;18.972;2023-05-16T03:15:19;49.27;38.58;59.69;;
77135;Laerm;48586;50.122;18.972;2023-05-16T03:17:23;50.39;40.32;63.81;;
77135;Laerm;48586;50.122;18.972;2023-05-16T03:19:27;48.53;40.10;56.73;;
77135;Laerm;48586;50.122;18.972;2023-05-16T03:21:34;47.47;41.18;56.46;;
77135;Laerm;48586;50.122;18.972;2023-05-16T03:23:38;47.92;39.77;55.96;;
77135;Laerm;48586;50.122;18.972;2023-05-16T03:25:43;48.50;40.58;59.05;;
77135;Laerm;48586;50.122;18.972;2023-05-16T03:27:47;49.37;40.59;62.77;;
77135;Laerm;48586;50.122;18.972;2023-05-16T03:29:53;50.63;43.39;60.06;;
77135;Laerm;48586;50.122;18.972;2023-05-16T03:31:58;50.79;40.37;58.66;;
77135;Laerm;48586;50.122;18.972;2023-05-16T03:34:03;51.99;40.12;69.36;;
77135;Laerm;48586;50.122;18.972;2023-05-16T03:36:09;51.57;42.06;71.25;;
77135;Laerm;48586;50.122;18.972;2023-05-16T03:38:17;49.46;38.58;58.14;;
77135;Laerm;48586;50.122;18.972;2023-05-16T03:40:22;50.51;41.52;57.56;;
77135;Laerm;48586;50.122;18.972;2023-05-16T03:42:26;47.44;38.96;56.55;;
77135;Laerm;48586;50.122;18.972;2023-05-16T03:44:32;49.37;41.72;56.74;;
77135;Laerm;48586;50.122;18.972;2023-05-16T03:46:36;45.59;37.27;53.19;;
77135;Laerm;48586;50.122;18.972;2023-05-16T03:48:40;49.55;38.08;58.70;;
77135;Laerm;48586;50.122;18.972;2023-05-16T03:50:45;46.40;36.95;57.20;;
77135;Laerm;48586;50.122;18.972;2023-05-16T03:52:49;48.12;38.44;68.34;;
77135;Laerm;48586;50.122;18.972;2023-05-16T03:54:56;51.57;38.73;65.72;;
77135;Laerm;48586;50.122;18.972;2023-05-16T03:57:03;50.78;39.37;65.36;;
77135;Laerm;48586;50.122;18.972;2023-05-16T03:59:07;47.63;38.52;54.83;;
77135;Laerm;48586;50.122;18.972;2023-05-16T04:01:11;47.82;37.24;59.69;;
77135;Laerm;48586;50.122;18.972;2023-05-16T04:03:16;49.09;39.27;56.64;;
77135;Laerm;48586;50.122;18.972;2023-05-16T04:05:21;54.50;38.89;77.16;;
77135;Laerm;48586;50.122;18.972;2023-05-16T04:07:25;52.23;41.83;65.90;;
77135;Laerm;48586;50.122;18.972;2023-05-16T04:09:31;58.77;46.33;76.66;;
77135;Laerm;48586;50.122;18.972;2023-05-16T04:11:37;59.07;46.29;70.08;;
77135;Laerm;48586;50.122;18.972;2023-05-16T04:13:41;45.16;38.55;52.66;;
77135;Laerm;48586;50.122;18.972;2023-05-16T04:15:46;46.78;39.11;54.85;;
77135;Laerm;48586;50.122;18.972;2023-05-16T04:17:50;50.40;41.43;58.82;;
77135;Laerm;48586;50.122;18.972;2023-05-16T04:19:54;49.28;40.64;58.36;;
77135;Laerm;48586;50.122;18.972;2023-05-16T04:21:59;52.73;42.32;71.03;;
77135;Laerm;48586;50.122;18.972;2023-05-16T04:24:05;51.78;42.19;72.53;;
77135;Laerm;48586;50.122;18.972;2023-05-16T04:26:09;51.11;40.58;60.86;;
77135;Laerm;48586;50.122;18.972;2023-05-16T04:28:17;49.11;40.42;56.97;;
77135;Laerm;48586;50.122;18.972;2023-05-16T04:30:22;49.50;42.31;56.96;;
77135;Laerm;48586;50.122;18.972;2023-05-16T04:32:26;48.32;42.05;59.93;;
77135;Laerm;48586;50.122;18.972;2023-05-16T04:34:31;49.80;40.22;71.05;;
77135;Laerm;48586;50.122;18.972;2023-05-16T04:36:37;52.57;42.13;73.34;;
77135;Laerm;48586;50.122;18.972;2023-05-16T04:38:41;48.04;40.23;55.32;;
77135;Laerm;48586;50.122;18.972;2023-05-16T04:40:47;49.31;42.27;58.92;;
77135;Laerm;48586;50.122;18.972;2023-05-16T04:42:52;58.33;47.47;73.36;;
77135;Laerm;48586;50.122;18.972;2023-05-16T04:44:59;59.33;44.18;72.07;;
77135;Laerm;48586;50.122;18.972;2023-05-16T04:47:05;49.20;41.55;57.14;;
77135;Laerm;48586;50.122;18.972;2023-05-16T04:49:09;52.64;42.52;62.86;;
77135;Laerm;48586;50.122;18.972;2023-05-16T04:51:14;53.21;43.86;69.43;;
77135;Laerm;48586;50.122;18.972;2023-05-16T04:53:19;51.62;43.79;65.93;;
77135;Laerm;48586;50.122;18.972;2023-05-16T04:55:24;49.54;38.76;58.06;;
77135;Laerm;48586;50.122;18.972;2023-05-16T04:57:29;51.64;40.83;63.03;;
77135;Laerm;48586;50.122;18.972;2023-05-16T04:59:34;49.51;42.87;61.60;;
77135;Laerm;48586;50.122;18.972;2023-05-16T05:01:42;51.46;41.29;58.46;;
77135;Laerm;48586;50.122;18.972;2023-05-16T05:03:47;50.26;41.74;59.24;;
77135;Laerm;48586;50.122;18.972;2023-05-16T05:05:52;51.05;41.46;59.51;;
77135;Laerm;48586;50.122;18.972;2023-05-16T05:07:58;51.34;41.06;58.66;;
77135;Laerm;48586;50.122;18.972;2023-05-16T05:10:03;50.95;42.08;60.81;;
77135;Laerm;48586;50.122;18.972;2023-05-16T05:12:09;55.41;43.97;77.75;;
77135;Laerm;48586;50.122;18.972;2023-05-16T05:14:14;51.74;42.29;63.05;;
77135;Laerm;48586;50.122;18.972;2023-05-16T05:16:18;50.27;41.03;59.17;;
77135;Laerm;48586;50.122;18.972;2023-05-16T05:18:27;53.12;44.37;67.37;;
77135;Laerm;48586;50.122;18.972;2023-05-16T05:20:31;55.01;44.03;65.06;;
77135;Laerm;48586;50.122;18.972;2023-05-16T05:22:35;51.34;41.43;65.03;;
77135;Laerm;48586;50.122;18.972;2023-05-16T05:24:41;51.20;42.92;61.90;;
77135;Laerm;48586;50.122;18.972;2023-05-16T05:26:46;50.53;43.84;59.45;;
77135;Laerm;48586;50.122;18.972;2023-05-16T05:28:51;49.90;43.13;62.62;;
77135;Laerm;48586;50.122;18.972;2023-05-16T05:30:57;52.70;44.72;60.82;;
77135;Laerm;48586;50.122;18.972;2023-05-16T05:33:02;50.33;43.67;59.55;;
77135;Laerm;48586;50.122;18.972;2023-05-16T05:35:10;53.08;43.19;58.02;;
77135;Laerm;48586;50.122;18.972;2023-05-16T05:37:17;50.99;40.88;60.09;;
77135;Laerm;48586;50.122;18.972;2023-05-16T05:39:21;49.95;42.24;57.14;;
77135;Laerm;48586;50.122;18.972;2023-05-16T05:41:25;53.58;43.78;68.54;;
77135;Laerm;48586;50.122;18.972;2023-05-16T05:43:30;49.02;40.85;54.92;;
77135;Laerm;48586;50.122;18.972;2023-05-16T05:45:36;63.31;44.79;79.13;;
77135;Laerm;48586;50.122;18.972;2023-05-16T05:47:40;67.59;40.97;82.83;;
77135;Laerm;48586;50.122;18.972;2023-05-16T05:49:47;50.33;41.47;59.96;;
77135;Laerm;48586;50.122;18.972;2023-05-16T05:51:54;57.33;44.61;72.43;;
77135;Laerm;48586;50.122;18.972;2023-05-16T05:54:00;52.49;45.33;63.89;;
77135;Laerm;48586;50.122;18.972;2023-05-16T05:56:06;51.87;46.53;60.63;;
77135;Laerm;48586;50.122;18.972;2023-05-16T05:58:10;49.99;39.53;66.26;;
77135;Laerm;48586;50.122;18.972;2023-05-16T06:00:16;50.88;41.94;64.36;;
77135;Laerm;48586;50.122;18.972;2023-05-16T06:02:21;52.70;44.92;67.50;;
77135;Laerm;48586;50.122;18.972;2023-05-16T06:04:26;50.81;40.35;67.29;;
77135;Laerm;48586;50.122;18.972;2023-05-16T06:06:31;50.65;40.77;63.22;;
77135;Laerm;48586;50.122;18.972;2023-05-16T06:08:40;54.24;42.37;62.49;;
77135;Laerm;48586;50.122;18.972;2023-05-16T06:10:46;49.19;42.12;63.05;;
77135;Laerm;48586;50.122;18.972;2023-05-16T06:12:50;50.09;40.97;56.84;;
77135;Laerm;48586;50.122;18.972;2023-05-16T06:14:56;50.72;41.64;58.91;;
77135;Laerm;48586;50.122;18.972;2023-05-16T06:17:01;49.31;39.15;63.05;;
77135;Laerm;48586;50.122;18.972;2023-05-16T06:19:05;50.18;39.40;61.22;;
77135;Laerm;48586;50.122;18.972;2023-05-16T06:21:11;49.60;37.93;61.49;;
77135;Laerm;48586;50.122;18.972;2023-05-16T06:23:17;49.97;41.67;58.03;;
77135;Laerm;48586;50.122;18.972;2023-05-16T06:25:24;49.20;41.75;57.21;;
77135;Laerm;48586;50.122;18.972;2023-05-16T06:27:31;49.43;41.86;64.25;;
77135;Laerm;48586;50.122;18.972;2023-05-16T06:29:36;50.16;42.09;61.89;;
77135;Laerm;48586;50.122;18.972;2023-05-16T06:31:40;50.44;43.06;60.40;;
77135;Laerm;48586;50.122;18.972;2023-05-16T06:33:47;48.12;38.51;58.25;;
77135;Laerm;48586;50.122;18.972;2023-05-16T06:35:51;50.84;40.96;61.74;;
77135;Laerm;48586;50.122;18.972;2023-05-16T06:37:56;50.71;39.57;68.53;;
77135;Laerm;48586;50.122;18.972;2023-05-16T06:40:02;50.07;40.61;56.37;;
77135;Laerm;48586;50.122;18.972;2023-05-16T06:42:10;49.81;40.74;55.90;;
77135;Laerm;48586;50.122;18.972;2023-05-16T06:44:15;51.90;40.76;70.91;;
77135;Laerm;48586;50.122;18.972;2023-05-16T06:46:21;49.84;41.89;61.94;;
77135;Laerm;48586;50.122;18.972;2023-05-16T06:48:26;49.71;42.83;57.14;;
77135;Laerm;48586;50.122;18.972;2023-05-16T06:50:31;50.92;40.69;63.91;;
77135;Laerm;48586;50.122;18.972;2023-05-16T06:52:36;50.56;42.25;63.03;;
77135;Laerm;48586;50.122;18.972;2023-05-16T06:54:42;53.35;43.12;76.71;;
77135;Laerm;48586;50.122;18.972;2023-05-16T06:56:47;51.12;39.08;61.88;;
77135;Laerm;48586;50.122;18.972;2023-05-16T06:58:55;51.00;38.66;61.24;;
77135;Laerm;48586;50.122;18.972;2023-05-16T07:01:02;49.76;39.56;58.25;;
77135;Laerm;48586;50.122;18.972;2023-05-16T07:03:06;51.70;44.34;61.48;;
77135;Laerm;48586;50.122;18.972;2023-05-16T07:05:12;52.13;40.94;61.89;;
77135;Laerm;48586;50.122;18.972;2023-05-16T07:07:18;50.43;37.92;67.76;;
77135;Laerm;48586;50.122;18.972;2023-05-16T07:09:23;51.74;42.88;66.18;;
77135;Laerm;48586;50.122;18.972;2023-05-16T07:11:28;48.79;39.52;57.48;;
77135;Laerm;48586;50.122;18.972;2023-05-16T07:13:33;47.69;38.32;57.27;;
77135;Laerm;48586;50.122;18.972;2023-05-16T07:15:40;53.56;42.41;62.42;;
77135;Laerm;48586;50.122;18.972;2023-05-16T07:17:47;47.38;36.67;55.43;;
77135;Laerm;48586;50.122;18.972;2023-05-16T07:19:51;51.56;41.32;66.13;;
77135;Laerm;48586;50.122;18.972;2023-05-16T07:21:56;49.43;39.42;64.57;;
77135;Laerm;48586;50.122;18.972;2023-05-16T07:24:01;46.26;37.46;55.14;;
77135;Laerm;48586;50.122;18.972;2023-05-16T07:26:08;48.43;37.07;56.68;;
77135;Laerm;48586;50.122;18.972;2023-05-16T07:28:12;48.98;36.31;61.80;;
77135;Laerm;48586;50.122;18.972;2023-05-16T07:30:17;49.09;38.29;55.67;;
77135;Laerm;48586;50.122;18.972;2023-05-16T07:32:25;46.98;37.04;55.86;;
77135;Laerm;48586;50.122;18.972;2023-05-16T07:34:30;49.23;37.89;60.99;;
77135;Laerm;48586;50.122;18.972;2023-05-16T07:36:36;52.17;41.15;74.55;;
77135;Laerm;48586;50.122;18.972;2023-05-16T07:38:40;49.50;38.56;58.33;;
77135;Laerm;48586;50.122;18.972;2023-05-16T07:40:46;48.29;39.35;58.96;;
77135;Laerm;48586;50.122;18.972;2023-05-16T07:42:52;49.22;39.27;60.64;;
77135;Laerm;48586;50.122;18.972;2023-05-16T07:44:57;50.73;40.88;59.56;;
77135;Laerm;48586;50.122;18.972;2023-05-16T07:47:03;51.64;42.03;62.08;;
77135;Laerm;48586;50.122;18.972;2023-05-16T07:49:11;50.85;41.66;60.13;;
77135;Laerm;48586;50.122;18.972;2023-05-16T07:51:17;49.91;37.72;73.80;;
77135;Laerm;48586;50.122;18.972;2023-05-16T07:53:22;49.06;40.66;58.41;;
77135;Laerm;48586;50.122;18.972;2023-05-16T07:55:28;51.33;40.90;62.61;;
77135;Laerm;48586;50.122;18.972;2023-05-16T07:57:33;46.55;36.35;57.20;;
77135;Laerm;48586;50.122;18.972;2023-05-16T07:59:39;49.74;37.59;56.42;;
77135;Laerm;48586;50.122;18.972;2023-05-16T08:01:44;47.98;37.67;55.22;;
77135;Laerm;48586;50.122;18.972;2023-05-16T08:03:49;47.72;37.05;60.20;;
77135;Laerm;48586;50.122;18.972;2023-05-16T08:05:57;48.84;39.25;56.41;;
77135;Laerm;48586;50.122;18.972;2023-05-16T08:08:03;50.21;37.86;62.52;;
77135;Laerm;48586;50.122;18.972;2023-05-16T08:10:09;48.25;38.77;58.50;;
77135;Laerm;48586;50.122;18.972;2023-05-16T08:12:13;48.06;38.65;58.93;;
77135;Laerm;48586;50.122;18.972;2023-05-16T08:14:19;47.08;37.58;65.05;;
77135;Laerm;48586;50.122;18.972;2023-05-16T08:16:24;49.47;36.47;60.99;;
77135;Laerm;48586;50.122;18.972;2023-05-16T08:18:29;47.78;35.52;61.81;;
77135;Laerm;48586;50.122;18.972;2023-05-16T08:20:34;46.52;37.52;56.68;;
77135;Laerm;48586;50.122;18.972;2023-05-16T08:22:42;49.35;39.10;61.52;;
77135;Laerm;48586;50.122;18.972;2023-05-16T08:24:47;48.80;37.61;57.37;;
77135;Laerm;48586;50.122;18.972;2023-05-16T08:26:53;47.30;36.55;56.95;;
77135;Laerm;48586;50.122;18.972;2023-05-16T08:28:58;48.84;40.84;59.44;;
77135;Laerm;48586;50.122;18.972;2023-05-16T08:31:02;49.09;41.38;65.50;;
77135;Laerm;48586;50.122;18.972;2023-05-16T08:33:09;48.40;41.58;56.51;;
77135;Laerm;48586;50.122;18.972;2023-05-16T08:35:13;48.12;38.39;56.94;;
77135;Laerm;48586;50.122;18.972;2023-05-16T08:37:18;50.24;40.47;59.95;;
77135;Laerm;48586;50.122;18.972;2023-05-16T08:39:26;48.88;40.58;60.03;;
77135;Laerm;48586;50.122;18.972;2023-05-16T08:41:31;48.81;41.25;56.82;;
77135;Laerm;48586;50.122;18.972;2023-05-16T08:43:35;46.61;38.25;56.62;;
77135;Laerm;48586;50.122;18.972;2023-05-16T08:45:41;46.13;37.80;56.89;;
77135;Laerm;48586;50.122;18.972;2023-05-16T08:47:49;46.39;36.40;54.97;;
77135;Laerm;48586;50.122;18.972;2023-05-16T08:50:00;46.64;37.44;55.84;;
77135;Laerm;48586;50.122;18.972;2023-05-16T08:52:09;47.75;39.10;59.77;;
77135;Laerm;48586;50.122;18.972;2023-05-16T08:54:15;49.08;39.67;64.78;;
77135;Laerm;48586;50.122;18.972;2023-05-16T08:56:25;53.48;43.24;65.57;;
77135;Laerm;48586;50.122;18.972;2023-05-16T08:58:31;52.36;37.66;64.04;;
77135;Laerm;48586;50.122;18.972;2023-05-16T09:00:37;51.19;40.72;61.14;;
77135;Laerm;48586;50.122;18.972;2023-05-16T09:02:43;55.56;40.25;69.28;;
77135;Laerm;48586;50.122;18.972;2023-05-16T09:04:51;49.56;38.19;64.08;;
77135;Laerm;48586;50.122;18.972;2023-05-16T09:06:57;48.41;40.18;58.57;;
77135;Laerm;48586;50.122;18.972;2023-05-16T09:09:02;49.02;37.09;63.73;;
77135;Laerm;48586;50.122;18.972;2023-05-16T09:11:10;49.39;37.23;63.92;;
77135;Laerm;48586;50.122;18.972;2023-05-16T09:13:17;48.06;37.68;57.95;;
77135;Laerm;48586;50.122;18.972;2023-05-16T09:15:23;47.55;38.55;56.24;;
77135;Laerm;48586;50.122;18.972;2023-05-16T09:17:38;48.99;40.55;66.03;;
77135;Laerm;48586;50.122;18.972;2023-05-16T09:19:45;51.11;39.13;61.89;;
77135;Laerm;48586;50.122;18.972;2023-05-16T09:21:54;50.18;39.28;70.21;;
77135;Laerm;48586;50.122;18.972;2023-05-16T09:24:02;47.56;37.04;63.60;;
77135;Laerm;48586;50.122;18.972;2023-05-16T09:26:09;48.83;38.23;55.71;;
77135;Laerm;48586;50.122;18.972;2023-05-16T09:28:18;48.56;40.04;62.03;;
77135;Laerm;48586;50.122;18.972;2023-05-16T09:30:29;49.24;40.68;61.74;;
77135;Laerm;48586;50.122;18.972;2023-05-16T09:32:34;50.51;40.69;59.20;;
77135;Laerm;48586;50.122;18.972;2023-05-16T09:34:43;48.14;37.53;60.88;;
77135;Laerm;48586;50.122;18.972;2023-05-16T09:36:54;46.25;37.34;56.28;;
77135;Laerm;48586;50.122;18.972;2023-05-16T09:39:00;48.83;37.20;56.78;;
77135;Laerm;48586;50.122;18.972;2023-05-16T09:41:04;46.75;37.56;57.83;;
77135;Laerm;48586;50.122;18.972;2023-05-16T09:43:17;47.97;39.03;56.83;;
77135;Laerm;48586;50.122;18.972;2023-05-16T09:45:22;50.06;42.49;59.35;;
77135;Laerm;48586;50.122;18.972;2023-05-16T09:47:28;46.89;38.19;58.76;;
77135;Laerm;48586;50.122;18.972;2023-05-16T09:49:36;47.33;39.46;55.70;;
77135;Laerm;48586;50.122;18.972;2023-05-16T09:51:40;48.37;37.96;58.21;;
77135;Laerm;48586;50.122;18.972;2023-05-16T09:53:46;47.90;37.54;57.61;;
77135;Laerm;48586;50.122;18.972;2023-05-16T09:56:00;50.41;43.16;59.12;;
77135;Laerm;48586;50.122;18.972;2023-05-16T09:58:07;49.68;41.25;56.96;;
77135;Laerm;48586;50.122;18.972;2023-05-16T10:00:16;53.89;39.89;74.36;;
77135;Laerm;48586;50.122;18.972;2023-05-16T10:02:24;68.51;39.69;79.68;;
77135;Laerm;48586;50.122;18.972;2023-05-16T10:04:30;44.37;37.56;56.32;;
77135;Laerm;48586;50.122;18.972;2023-05-16T10:06:37;46.64;37.96;56.07;;
77135;Laerm;48586;50.122;18.972;2023-05-16T10:08:43;47.09;36.69;58.17;;
77135;Laerm;48586;50.122;18.972;2023-05-16T10:10:51;47.97;38.39;55.95;;
77135;Laerm;48586;50.122;18.972;2023-05-16T10:13:00;47.81;36.54;63.26;;
77135;Laerm;48586;50.122;18.972;2023-05-16T10:15:09;49.58;40.20;61.65;;
77135;Laerm;48586;50.122;18.972;2023-05-16T10:17:18;46.42;38.20;58.10;;
77135;Laerm;48586;50.122;18.972;2023-05-16T10:19:26;49.51;37.07;56.80;;
77135;Laerm;48586;50.122;18.972;2023-05-16T10:21:33;47.25;37.47;57.34;;
77135;Laerm;48586;50.122;18.972;2023-05-16T10:23:42;48.38;40.08;57.06;;
77135;Laerm;48586;50.122;18.972;2023-05-16T10:25:51;47.61;38.77;56.89;;
77135;Laerm;48586;50.122;18.972;2023-05-16T10:27:59;48.56;38.80;61.25;;
77135;Laerm;48586;50.122;18.972;2023-05-16T10:30:07;46.78;37.05;58.04;;
77135;Laerm;48586;50.122;18.972;2023-05-16T10:32:17;47.80;39.24;57.05;;
77135;Laerm;48586;50.122;18.972;2023-05-16T10:34:23;48.38;38.88;57.50;;
77135;Laerm;48586;50.122;18.972;2023-05-16T10:36:29;54.61;39.51;74.32;;
77135;Laerm;48586;50.122;18.972;2023-05-16T10:38:37;49.86;39.72;63.89;;
77135;Laerm;48586;50.122;18.972;2023-05-16T10:40:46;50.33;40.70;59.51;;
77135;Laerm;48586;50.122;18.972;2023-05-16T10:42:56;47.63;39.64;60.87;;
77135;Laerm;48586;50.122;18.972;2023-05-16T10:45:17;51.28;41.56;63.80;;
77135;Laerm;48586;50.122;18.972;2023-05-16T10:47:27;47.85;37.82;56.25;;
77135;Laerm;48586;50.122;18.972;2023-05-16T10:49:32;47.94;37.46;68.53;;
77135;Laerm;48586;50.122;18.972;2023-05-16T10:51:38;50.49;37.55;61.78;;
77135;Laerm;48586;50.122;18.972;2023-05-16T10:53:43;48.27;38.71;57.13;;
77135;Laerm;48586;50.122;18.972;2023-05-16T10:56:05;47.26;39.09;60.67;;
77135;Laerm;48586;50.122;18.972;2023-05-16T10:58:18;48.36;39.98;59.04;;
77135;Laerm;48586;50.122;18.972;2023-05-16T11:00:30;49.45;39.43;61.07;;
77135;Laerm;48586;50.122;18.972;2023-05-16T11:02:41;53.58;38.86;67.91;;
77135;Laerm;48586;50.122;18.972;2023-05-16T11:04:48;47.05;37.41;53.50;;
77135;Laerm;48586;50.122;18.972;2023-05-16T11:06:58;50.21;42.13;62.37;;
77135;Laerm;48586;50.122;18.972;2023-05-16T11:09:16;51.57;38.10;62.77;;
77135;Laerm;48586;50.122;18.972;2023-05-16T11:11:41;54.47;38.83;68.93;;
77135;Laerm;48586;50.122;18.972;2023-05-16T11:13:54;48.02;39.65;55.53;;
77135;Laerm;48586;50.122;18.972;2023-05-16T11:16:26;50.37;43.62;56.35;;
77135;Laerm;48586;50.122;18.972;2023-05-16T11:18:49;51.53;42.58;66.16;;
77135;Laerm;48586;50.122;18.972;2023-05-16T11:21:03;52.79;42.20;67.37;;
77135;Laerm;48586;50.122;18.972;2023-05-16T11:23:23;54.62;42.60;68.51;;
77135;Laerm;48586;50.122;18.972;2023-05-16T11:25:36;50.19;42.31;65.61;;
77135;Laerm;48586;50.122;18.972;2023-05-16T11:27:46;50.57;43.41;62.96;;
77135;Laerm;48586;50.122;18.972;2023-05-16T11:29:52;50.90;43.55;60.64;;
77135;Laerm;48586;50.122;18.972;2023-05-16T11:31:59;49.58;38.41;61.26;;
77135;Laerm;48586;50.122;18.972;2023-05-16T11:34:09;49.34;38.91;57.37;;
77135;Laerm;48586;50.122;18.972;2023-05-16T11:36:14;49.29;38.55;55.06;;
77135;Laerm;48586;50.122;18.972;2023-05-16T11:38:19;49.31;42.04;57.02;;
77135;Laerm;48586;50.122;18.972;2023-05-16T11:40:26;47.69;39.26;55.80;;